Time;durP1;ratioP1;P1;durP2;ratioP2;P2;SDS_P1;SDS_P2;PMS_P1;PMS_P2;Temp;Humidity;BMP_temperature;BMP_pressure;BME280_temperature;BME280_humidity;BME280_pressure;Samples;Min_cycle;Max_cycle;Signal;HPM_P1;HPM_P2
2022/03/28 00:02:14;;;;;;;4.72;1.77;;;6.60;99.90;;;;;;5038588;28;20048;-73
2022/03/28 00:04:40;;;;;;;3.45;1.20;;;6.60;99.90;;;;;;5041562;28;20056;-74
2022/03/28 00:07:06;;;;;;;4.13;1.35;;;6.70;99.90;;;;;;5047068;28;20036;-73
2022/03/28 00:09:31;;;;;;;4.72;1.77;;;6.70;99.90;;;;;;5045735;28;20041;-73
2022/03/28 00:11:57;;;;;;;4.32;1.70;;;6.70;99.90;;;;;;5030059;28;20033;-73
2022/03/28 00:14:23;;;;;;;4.68;2.30;;;6.70;99.90;;;;;;5045853;28;20037;-73
2022/03/28 00:16:48;;;;;;;5.35;1.95;;;6.70;99.90;;;;;;5057880;28;20045;-73
2022/03/28 00:19:14;;;;;;;5.25;2.13;;;6.70;99.90;;;;;;5046282;28;20078;-73
2022/03/28 00:21:40;;;;;;;4.93;2.08;;;6.70;99.90;;;;;;5026964;28;20033;-73
2022/03/28 00:24:06;;;;;;;5.13;2.05;;;6.60;99.90;;;;;;5042158;28;20029;-73
2022/03/28 00:26:32;;;;;;;5.10;2.58;;;6.60;99.90;;;;;;5028494;28;20717;-73
2022/03/28 00:28:57;;;;;;;6.68;2.25;;;6.70;99.90;;;;;;5042947;28;20049;-73
2022/03/28 00:31:23;;;;;;;5.10;1.95;;;6.70;99.90;;;;;;5031078;28;20038;-73
2022/03/28 00:33:49;;;;;;;3.85;1.55;;;6.70;99.90;;;;;;5026551;28;20515;-73
2022/03/28 00:36:14;;;;;;;4.22;1.80;;;6.70;99.90;;;;;;5035537;28;20614;-73
2022/03/28 00:38:40;;;;;;;5.07;1.90;;;6.70;99.90;;;;;;5026322;28;20407;-73
2022/03/28 00:41:05;;;;;;;6.38;2.28;;;6.70;99.90;;;;;;5040158;28;20037;-73
2022/03/28 00:43:31;;;;;;;4.97;1.67;;;6.70;99.90;;;;;;5046658;28;20037;-73
2022/03/28 00:45:57;;;;;;;5.30;2.17;;;6.70;99.90;;;;;;5044923;28;20036;-73
2022/03/28 00:48:26;;;;;;;8.23;2.22;;;6.70;99.90;;;;;;5043940;28;20033;-73
2022/03/28 00:50:53;;;;;;;5.43;2.03;;;6.70;99.90;;;;;;5036622;28;20386;-73
2022/03/28 00:53:19;;;;;;;5.55;1.70;;;6.70;99.90;;;;;;5042870;28;20037;-73
2022/03/28 00:55:45;;;;;;;4.15;1.60;;;6.70;99.90;;;;;;5044746;28;20048;-73
2022/03/28 00:58:11;;;;;;;4.95;2.13;;;6.70;99.90;;;;;;5031556;28;20046;-73
2022/03/28 01:00:37;;;;;;;7.57;3.45;;;6.70;99.90;;;;;;5036639;28;20048;-73
2022/03/28 01:03:03;;;;;;;5.20;2.15;;;6.70;99.90;;;;;;5033165;28;20044;-73
2022/03/28 01:05:31;;;;;;;7.22;3.00;;;6.70;99.90;;;;;;5055858;28;20048;-73
2022/03/28 01:07:56;;;;;;;5.90;2.10;;;6.70;99.90;;;;;;5028873;28;20456;-73
2022/03/28 01:10:22;;;;;;;4.68;1.70;;;6.70;99.90;;;;;;5028431;28;20065;-73
2022/03/28 01:12:48;;;;;;;8.23;2.90;;;6.70;99.90;;;;;;5037656;28;20040;-73
2022/03/28 01:15:14;;;;;;;5.07;2.20;;;6.70;99.90;;;;;;5035953;28;20048;-73
2022/03/28 01:18:27;;;;;;;5.70;2.13;;;6.70;99.90;;;;;;5052824;28;20040;-73
2022/03/28 01:20:28;;;;;;;5.25;2.10;;;6.70;99.90;;;;;;5037859;28;20057;-73
2022/03/28 01:22:53;;;;;;;5.75;2.15;;;6.70;99.90;;;;;;5030702;28;20475;-73
2022/03/28 01:25:22;;;;;;;7.13;2.50;;;6.70;99.90;;;;;;5039625;28;20162;-73
2022/03/28 01:27:50;;;;;;;5.95;2.35;;;6.70;99.90;;;;;;5063949;28;20045;-73
2022/03/28 01:30:16;;;;;;;6.13;2.75;;;6.60;99.90;;;;;;5039542;28;20037;-73
2022/03/28 01:32:41;;;;;;;9.18;2.90;;;6.70;99.90;;;;;;5029763;28;20102;-73
2022/03/28 01:35:07;;;;;;;6.15;2.63;;;6.60;99.90;;;;;;5038067;28;20131;-74
2022/03/28 01:37:33;;;;;;;5.75;2.47;;;6.60;99.90;;;;;;5033807;28;20056;-73
2022/03/28 01:39:58;;;;;;;7.07;2.80;;;6.60;99.90;;;;;;5036612;28;20047;-73
2022/03/28 01:42:24;;;;;;;6.85;2.92;;;6.60;99.90;;;;;;5028786;28;20107;-73
2022/03/28 01:44:51;;;;;;;6.90;3.15;;;6.60;99.90;;;;;;5046070;28;20045;-74
2022/03/28 01:47:17;;;;;;;7.60;2.78;;;6.60;99.90;;;;;;5037077;28;20128;-73
2022/03/28 01:49:43;;;;;;;6.18;2.83;;;6.60;99.90;;;;;;5042227;28;20612;-73
2022/03/28 01:52:08;;;;;;;8.60;3.03;;;6.70;99.90;;;;;;5031840;28;20102;-73
2022/03/28 01:54:34;;;;;;;9.18;4.15;;;6.70;99.90;;;;;;5049818;28;20052;-73
2022/03/28 01:57:00;;;;;;;7.30;3.40;;;6.70;99.90;;;;;;5032245;28;20045;-73
2022/03/28 01:59:25;;;;;;;7.00;3.45;;;6.70;99.90;;;;;;5029853;28;20059;-73
2022/03/28 02:01:51;;;;;;;10.18;4.18;;;6.70;99.90;;;;;;5030765;28;20049;-73
2022/03/28 02:04:17;;;;;;;8.75;3.42;;;6.70;99.90;;;;;;5035974;28;20041;-73
2022/03/28 02:06:42;;;;;;;7.78;3.25;;;6.70;99.90;;;;;;5057305;28;20115;-73
2022/03/28 02:09:08;;;;;;;7.95;3.25;;;6.70;99.90;;;;;;5044095;28;20034;-73
2022/03/28 02:11:34;;;;;;;11.35;4.03;;;6.70;99.90;;;;;;5046492;28;20045;-73
2022/03/28 02:14:00;;;;;;;10.18;4.13;;;6.70;99.90;;;;;;5030456;28;20521;-74
2022/03/28 02:16:26;;;;;;;8.10;2.83;;;6.70;99.90;;;;;;5030375;28;20206;-73
2022/03/28 02:18:51;;;;;;;8.32;3.90;;;6.60;99.90;;;;;;5061371;28;20106;-73
2022/03/28 02:21:17;;;;;;;8.50;3.75;;;6.60;99.90;;;;;;5050961;28;20387;-73
2022/03/28 02:23:44;;;;;;;7.70;3.53;;;6.60;99.90;;;;;;5043732;28;20068;-73
2022/03/28 02:26:09;;;;;;;6.57;3.17;;;6.60;99.90;;;;;;5032007;28;20131;-73
2022/03/28 02:28:35;;;;;;;6.25;2.78;;;6.60;99.90;;;;;;5043245;28;20558;-73
2022/03/28 02:31:00;;;;;;;7.65;3.25;;;6.60;99.90;;;;;;5029098;28;20041;-73
2022/03/28 02:33:26;;;;;;;7.38;3.30;;;6.60;99.90;;;;;;5028474;28;20041;-73
2022/03/28 02:35:52;;;;;;;7.60;3.65;;;6.60;99.90;;;;;;5040774;28;20427;-73
2022/03/28 02:38:17;;;;;;;8.93;4.55;;;6.60;99.90;;;;;;5048204;28;20029;-74
2022/03/28 02:40:43;;;;;;;7.32;3.60;;;6.60;99.90;;;;;;5043794;28;20033;-73
2022/03/28 02:43:08;;;;;;;6.50;3.13;;;6.60;99.90;;;;;;5048283;28;20044;-73
2022/03/28 02:45:36;;;;;;;8.32;3.85;;;6.60;99.90;;;;;;5039833;28;20564;-73
2022/03/28 02:48:04;;;;;;;8.38;2.90;;;6.60;99.90;;;;;;5035511;28;20044;-73
2022/03/28 02:50:31;;;;;;;7.05;2.90;;;6.50;99.90;;;;;;5027699;28;20044;-73
2022/03/28 02:52:58;;;;;;;6.70;3.42;;;6.50;99.90;;;;;;5060238;28;20037;-73
2022/03/28 02:55:23;;;;;;;11.38;4.10;;;6.50;99.90;;;;;;5063428;28;20119;-73
2022/03/28 02:57:49;;;;;;;7.75;3.22;;;6.50;99.90;;;;;;5047293;28;20124;-73
2022/03/28 03:00:15;;;;;;;8.27;3.75;;;6.60;99.90;;;;;;5045677;28;20041;-73
2022/03/28 03:02:42;;;;;;;8.13;3.20;;;6.60;99.90;;;;;;5039837;28;20045;-73
2022/03/28 03:05:09;;;;;;;8.90;3.70;;;6.60;99.90;;;;;;5030169;28;20181;-73
2022/03/28 03:07:36;;;;;;;5.68;2.45;;;6.60;99.90;;;;;;5033569;28;20060;-73
2022/03/28 03:10:02;;;;;;;8.32;3.28;;;6.60;99.90;;;;;;5064167;28;20045;-73
2022/03/28 03:12:27;;;;;;;7.85;3.00;;;6.50;99.90;;;;;;5033008;28;20056;-73
2022/03/28 03:14:53;;;;;;;4.43;2.60;;;6.50;99.90;;;;;;5029631;28;20049;-73
2022/03/28 03:17:20;;;;;;;5.88;2.45;;;6.50;99.90;;;;;;5019963;28;20040;-73
2022/03/28 03:19:45;;;;;;;6.20;3.03;;;6.40;99.90;;;;;;5050125;28;20071;-73
2022/03/28 03:22:14;;;;;;;5.70;2.63;;;6.40;99.90;;;;;;5059614;28;20041;-73
2022/03/28 03:24:40;;;;;;;4.82;2.25;;;6.40;99.90;;;;;;5047733;28;20044;-73
2022/03/28 03:27:07;;;;;;;6.93;2.83;;;6.40;99.90;;;;;;5055791;28;20037;-73
2022/03/28 03:29:33;;;;;;;6.25;3.13;;;6.40;99.90;;;;;;5033052;28;20033;-73
2022/03/28 03:31:59;;;;;;;7.18;3.08;;;6.40;99.90;;;;;;5032477;28;20041;-73
2022/03/28 03:34:24;;;;;;;4.88;2.63;;;6.40;99.90;;;;;;5027275;28;20045;-73
2022/03/28 03:36:50;;;;;;;5.18;2.58;;;6.40;99.90;;;;;;5038549;28;20171;-73
2022/03/28 03:39:16;;;;;;;4.57;2.22;;;6.40;99.90;;;;;;5046138;28;20068;-73
2022/03/28 03:41:42;;;;;;;5.43;2.58;;;6.30;99.90;;;;;;5032247;28;20052;-73
2022/03/28 03:44:09;;;;;;;7.75;3.55;;;6.40;99.90;;;;;;5060808;28;20119;-73
2022/03/28 03:46:34;;;;;;;5.85;2.63;;;6.30;99.90;;;;;;5043537;28;20033;-73
2022/03/28 03:49:00;;;;;;;5.40;2.47;;;6.30;99.90;;;;;;5038421;28;20044;-73
2022/03/28 03:51:26;;;;;;;7.03;3.22;;;6.30;99.90;;;;;;5039240;28;20091;-73
2022/03/28 03:53:52;;;;;;;5.82;2.97;;;6.30;99.90;;;;;;5029659;28;20040;-74
2022/03/28 03:56:17;;;;;;;6.85;2.90;;;6.30;99.90;;;;;;5030436;28;20127;-73
2022/03/28 03:58:43;;;;;;;7.22;3.05;;;6.30;99.90;;;;;;5034183;28;20381;-73
2022/03/28 04:01:09;;;;;;;6.90;3.20;;;6.30;99.90;;;;;;5029775;28;20100;-73
2022/03/28 04:03:38;;;;;;;5.97;3.38;;;6.30;99.90;;;;;;5017415;28;20073;-73
2022/03/28 04:06:05;;;;;;;6.40;3.17;;;6.20;99.90;;;;;;5054344;28;20043;-73
2022/03/28 04:08:31;;;;;;;5.13;2.63;;;6.20;99.90;;;;;;5036438;28;20033;-73
2022/03/28 04:10:56;;;;;;;5.65;2.50;;;6.20;99.90;;;;;;5038954;28;20712;-73
2022/03/28 04:13:22;;;;;;;6.35;3.45;;;6.20;99.90;;;;;;5042274;28;20053;-73
2022/03/28 04:15:48;;;;;;;7.15;3.33;;;6.20;99.90;;;;;;5026049;28;20053;-73
2022/03/28 04:18:14;;;;;;;5.25;2.70;;;6.20;99.90;;;;;;5038850;28;20072;-74
2022/03/28 04:20:40;;;;;;;7.00;3.05;;;6.20;99.90;;;;;;5022487;28;20053;-73
2022/03/28 04:23:05;;;;;;;6.55;3.30;;;6.20;99.90;;;;;;5059545;28;20051;-73
2022/03/28 04:25:32;;;;;;;7.68;3.95;;;6.20;99.90;;;;;;5026889;28;20068;-73
2022/03/28 04:27:58;;;;;;;7.25;3.33;;;6.10;99.90;;;;;;5028870;28;20041;-73
2022/03/28 04:30:23;;;;;;;7.80;3.63;;;6.10;99.90;;;;;;5044018;28;20052;-73
2022/03/28 04:32:49;;;;;;;7.32;3.72;;;6.20;99.90;;;;;;5032973;28;20029;-73
2022/03/28 04:35:15;;;;;;;8.65;3.67;;;6.20;99.90;;;;;;5049839;28;20060;-73
2022/03/28 04:37:42;;;;;;;7.95;3.20;;;6.20;99.90;;;;;;5036395;28;20033;-73
2022/03/28 04:40:10;;;;;;;6.53;3.20;;;6.10;99.90;;;;;;5032623;28;20047;-73
2022/03/28 04:42:36;;;;;;;6.97;3.25;;;6.10;99.90;;;;;;5029053;28;20169;-73
2022/03/28 04:45:04;;;;;;;6.13;2.67;;;6.10;99.90;;;;;;5034619;28;20087;-73
2022/03/28 04:47:30;;;;;;;5.95;2.58;;;6.10;99.90;;;;;;5028878;28;20037;-73
2022/03/28 04:49:56;;;;;;;7.38;3.03;;;6.10;99.90;;;;;;5045770;28;20051;-73
2022/03/28 04:52:21;;;;;;;4.47;2.35;;;6.00;99.90;;;;;;5067089;28;20037;-73
2022/03/28 04:54:47;;;;;;;7.35;3.00;;;6.00;99.90;;;;;;5064247;28;20608;-73
2022/03/28 04:57:13;;;;;;;5.00;2.47;;;6.00;99.90;;;;;;5047575;28;20447;-73
2022/03/28 04:59:38;;;;;;;5.78;2.55;;;6.00;99.90;;;;;;5030521;28;20049;-74
2022/03/28 05:02:06;;;;;;;6.00;2.53;;;6.00;99.90;;;;;;5066457;28;20115;-73
2022/03/28 05:04:32;;;;;;;6.60;2.58;;;5.90;99.90;;;;;;5022828;28;20037;-73
2022/03/28 05:06:58;;;;;;;3.80;1.80;;;5.90;99.90;;;;;;5030374;28;20047;-73
2022/03/28 05:09:24;;;;;;;6.60;3.20;;;5.90;99.90;;;;;;5054287;28;20801;-74
2022/03/28 05:11:49;;;;;;;5.18;2.42;;;5.90;99.90;;;;;;5040249;28;20041;-73
2022/03/28 05:14:15;;;;;;;6.20;2.35;;;6.00;99.90;;;;;;5064560;28;20124;-73
2022/03/28 05:16:41;;;;;;;6.68;2.53;;;6.00;99.90;;;;;;5034055;28;20045;-73
2022/03/28 05:19:06;;;;;;;5.70;2.60;;;6.00;99.90;;;;;;5049730;28;20731;-73
2022/03/28 05:21:32;;;;;;;4.68;2.00;;;6.00;99.90;;;;;;5027803;28;20083;-73
2022/03/28 05:23:58;;;;;;;4.88;2.30;;;6.00;99.90;;;;;;5030185;28;20033;-73
2022/03/28 05:26:23;;;;;;;6.63;2.70;;;6.00;99.90;;;;;;5047158;28;20272;-73
2022/03/28 05:28:49;;;;;;;7.35;2.83;;;6.00;99.90;;;;;;5033479;28;20123;-73
2022/03/28 05:31:14;;;;;;;4.43;2.20;;;6.00;99.90;;;;;;5027788;28;20498;-73
2022/03/28 05:33:40;;;;;;;4.63;2.10;;;6.00;99.90;;;;;;5048558;28;20447;-73
2022/03/28 05:36:07;;;;;;;4.80;2.00;;;6.00;99.90;;;;;;5039628;28;20041;-73
2022/03/28 05:38:33;;;;;;;5.50;2.47;;;6.00;99.90;;;;;;5029758;28;20099;-74
2022/03/28 05:40:58;;;;;;;5.53;1.75;;;6.00;99.90;;;;;;5032331;28;20454;-73
2022/03/28 05:43:25;;;;;;;4.07;1.52;;;5.90;99.90;;;;;;5032429;28;20230;-73
2022/03/28 05:45:54;;;;;;;3.47;1.35;;;6.00;99.90;;;;;;5043050;28;20136;-73
2022/03/28 05:48:20;;;;;;;5.55;1.23;;;5.90;99.90;;;;;;5046569;28;20045;-73
2022/03/28 05:50:46;;;;;;;3.17;1.30;;;5.90;99.90;;;;;;5062938;28;20040;-73
2022/03/28 05:53:13;;;;;;;6.10;2.25;;;5.90;99.90;;;;;;5029631;28;20045;-73
2022/03/28 05:55:43;;;;;;;5.57;2.30;;;5.90;99.90;;;;;;5056848;28;20048;-73
2022/03/28 05:58:09;;;;;;;4.68;1.60;;;5.90;99.90;;;;;;5015485;28;20033;-73
2022/03/28 06:00:36;;;;;;;3.65;1.90;;;5.80;99.90;;;;;;5055993;28;20167;-73
2022/03/28 06:03:02;;;;;;;6.47;3.08;;;5.90;99.90;;;;;;5044265;28;20044;-73
2022/03/28 06:05:27;;;;;;;4.82;2.03;;;5.90;99.90;;;;;;5031185;28;20052;-73
2022/03/28 06:07:53;;;;;;;5.47;2.08;;;5.90;99.90;;;;;;5030444;28;20048;-73
2022/03/28 06:10:19;;;;;;;6.78;2.75;;;5.90;99.90;;;;;;5045714;28;20163;-73
2022/03/28 06:12:44;;;;;;;6.05;2.53;;;5.90;99.90;;;;;;5046988;28;20219;-73
2022/03/28 06:15:10;;;;;;;4.80;2.25;;;5.90;99.90;;;;;;5046345;28;20114;-73
2022/03/28 06:17:35;;;;;;;4.40;1.52;;;5.90;99.90;;;;;;5048373;28;20040;-73
2022/03/28 06:20:03;;;;;;;2.47;1.15;;;5.90;99.90;;;;;;5022230;28;20065;-73
2022/03/28 06:22:28;;;;;;;2.10;0.93;;;5.80;99.90;;;;;;5047460;28;20033;-73
2022/03/28 06:24:54;;;;;;;6.25;1.77;;;5.80;99.90;;;;;;5057916;28;20075;-78
2022/03/28 06:27:23;;;;;;;4.07;1.77;;;5.80;99.90;;;;;;5029905;28;20052;-73
2022/03/28 06:29:50;;;;;;;4.43;2.20;;;5.80;99.90;;;;;;5060446;28;20469;-73
2022/03/28 06:32:16;;;;;;;4.25;1.98;;;5.70;99.90;;;;;;5049015;28;20041;-73
2022/03/28 06:34:41;;;;;;;2.95;1.30;;;5.70;99.90;;;;;;5044235;28;20028;-73
2022/03/28 06:37:07;;;;;;;6.00;1.90;;;5.70;99.90;;;;;;5064989;28;20037;-73
2022/03/28 06:39:34;;;;;;;4.53;1.90;;;5.70;99.90;;;;;;5035604;28;20391;-73
2022/03/28 06:42:01;;;;;;;2.58;1.30;;;5.70;99.90;;;;;;5028449;28;20037;-73
2022/03/28 06:44:26;;;;;;;5.75;2.00;;;5.70;99.90;;;;;;5026753;28;20513;-73
2022/03/28 06:46:52;;;;;;;4.13;1.42;;;5.70;99.90;;;;;;5045303;28;20033;-73
2022/03/28 06:49:18;;;;;;;5.03;2.10;;;5.70;99.90;;;;;;5039668;28;20044;-73
2022/03/28 06:51:44;;;;;;;5.47;2.00;;;5.70;99.90;;;;;;5024384;28;20045;-73
2022/03/28 06:54:13;;;;;;;4.00;1.85;;;5.70;99.90;;;;;;5034302;28;20215;-73
2022/03/28 06:56:39;;;;;;;6.68;2.70;;;5.70;99.90;;;;;;5047216;28;20459;-73
2022/03/28 06:59:06;;;;;;;7.63;2.38;;;5.70;99.90;;;;;;5043880;28;20123;-73
2022/03/28 07:01:32;;;;;;;7.88;2.60;;;5.70;99.90;;;;;;5027511;28;20517;-73
2022/03/28 07:03:57;;;;;;;9.80;2.83;;;5.70;99.90;;;;;;5029320;28;20049;-73
2022/03/28 07:06:23;;;;;;;5.95;2.10;;;5.70;99.90;;;;;;5032391;28;20466;-73
2022/03/28 07:08:48;;;;;;;3.60;1.98;;;5.80;99.90;;;;;;5039295;28;20032;-73
2022/03/28 07:11:14;;;;;;;7.75;2.70;;;5.80;99.90;;;;;;5036396;28;20454;-73
2022/03/28 07:13:39;;;;;;;7.53;2.22;;;5.80;99.90;;;;;;5043098;28;20052;-73
2022/03/28 07:16:05;;;;;;;6.32;2.22;;;5.80;99.90;;;;;;5037427;28;20047;-73
2022/03/28 07:18:31;;;;;;;5.78;1.70;;;5.80;99.90;;;;;;5039216;28;20045;-73
2022/03/28 07:20:56;;;;;;;5.95;2.65;;;5.80;99.90;;;;;;5042987;28;20057;-73
2022/03/28 07:23:22;;;;;;;8.75;1.95;;;5.80;99.90;;;;;;5047647;28;20049;-73
2022/03/28 07:25:48;;;;;;;6.30;2.60;;;5.80;99.90;;;;;;5043332;28;20106;-73
2022/03/28 07:28:14;;;;;;;4.50;1.40;;;5.90;99.90;;;;;;5024994;28;20040;-73
2022/03/28 07:30:41;;;;;;;4.75;1.40;;;5.90;99.90;;;;;;5037110;28;20052;-73
2022/03/28 07:33:07;;;;;;;1.98;0.90;;;5.90;99.90;;;;;;5039998;28;20075;-73
2022/03/28 07:35:35;;;;;;;3.47;1.70;;;5.90;99.90;;;;;;5024009;28;20308;-73
2022/03/28 07:38:01;;;;;;;8.27;2.25;;;6.00;99.90;;;;;;5034444;28;20120;-73
2022/03/28 07:40:27;;;;;;;3.65;1.67;;;6.00;99.90;;;;;;5030960;28;20094;-75
2022/03/28 07:42:53;;;;;;;4.65;1.75;;;6.00;99.90;;;;;;5040352;28;20048;-74
2022/03/28 07:45:20;;;;;;;4.35;1.92;;;6.00;99.90;;;;;;5033882;28;20087;-73
2022/03/28 07:47:46;;;;;;;6.40;2.20;;;6.00;99.90;;;;;;5041486;28;20442;-73
2022/03/28 07:50:12;;;;;;;4.93;2.13;;;6.00;99.90;;;;;;5053445;28;20147;-73
2022/03/28 07:52:39;;;;;;;4.72;1.77;;;6.00;99.90;;;;;;5043258;28;20067;-73
2022/03/28 07:55:06;;;;;;;5.28;1.80;;;6.00;99.90;;;;;;5025129;28;20135;-73
2022/03/28 07:57:34;;;;;;;3.65;1.55;;;6.00;99.90;;;;;;5026640;28;20482;-73
2022/03/28 08:00:00;;;;;;;4.78;1.85;;;6.10;99.90;;;;;;5036517;28;20124;-73
2022/03/28 08:02:25;;;;;;;3.67;1.45;;;6.10;99.90;;;;;;5035382;28;20038;-73
2022/03/28 08:04:51;;;;;;;4.18;1.42;;;6.20;99.90;;;;;;5044735;28;20110;-73
2022/03/28 08:07:16;;;;;;;4.45;1.58;;;6.20;99.90;;;;;;5022809;28;20458;-73
2022/03/28 08:09:42;;;;;;;4.15;1.70;;;6.20;99.90;;;;;;5034431;28;20138;-73
2022/03/28 08:12:09;;;;;;;5.38;1.95;;;6.20;99.90;;;;;;5033776;28;20035;-73
2022/03/28 08:14:36;;;;;;;3.60;1.70;;;6.20;99.90;;;;;;5031302;28;20055;-72
2022/03/28 08:17:03;;;;;;;5.85;1.98;;;6.20;99.90;;;;;;5035447;28;20037;-72
2022/03/28 08:19:28;;;;;;;7.00;2.05;;;6.30;99.90;;;;;;5037137;28;20068;-72
2022/03/28 08:21:54;;;;;;;5.22;2.05;;;6.30;99.90;;;;;;5031990;28;20578;-72
2022/03/28 08:24:20;;;;;;;6.05;2.40;;;6.20;99.90;;;;;;5036558;28;20049;-72
2022/03/28 08:26:46;;;;;;;5.38;2.42;;;6.30;99.90;;;;;;5025953;28;20048;-72
2022/03/28 08:29:12;;;;;;;4.70;2.25;;;6.40;99.90;;;;;;5029289;28;20038;-72
2022/03/28 08:31:38;;;;;;;7.15;1.65;;;6.40;99.90;;;;;;5032863;28;20383;-73
2022/03/28 08:34:03;;;;;;;5.28;2.03;;;6.40;99.90;;;;;;5048460;28;20041;-73
2022/03/28 08:36:29;;;;;;;6.80;2.53;;;6.40;99.90;;;;;;5033028;28;20036;-73
2022/03/28 08:38:55;;;;;;;4.43;1.48;;;6.40;99.90;;;;;;5046270;28;20344;-72
2022/03/28 08:41:25;;;;;;;4.00;1.98;;;6.50;99.90;;;;;;5033876;28;20045;-73
2022/03/28 08:43:51;;;;;;;3.58;1.95;;;6.40;99.90;;;;;;5048316;28;20045;-73
2022/03/28 08:46:17;;;;;;;5.63;2.25;;;6.50;99.90;;;;;;5030008;28;20033;-72
2022/03/28 08:48:44;;;;;;;5.57;1.77;;;6.50;99.90;;;;;;5016188;28;20944;-73
2022/03/28 08:51:11;;;;;;;5.63;1.58;;;6.50;99.90;;;;;;5034919;28;20076;-73
2022/03/28 08:53:38;;;;;;;4.57;1.80;;;6.50;99.90;;;;;;5048341;28;20406;-73
2022/03/28 08:56:05;;;;;;;6.80;2.35;;;6.50;99.90;;;;;;5029348;28;20045;-72
2022/03/28 08:58:30;;;;;;;5.57;1.90;;;6.60;99.90;;;;;;5029505;28;20045;-73
2022/03/28 09:00:56;;;;;;;5.18;2.13;;;6.60;99.90;;;;;;5039745;28;20029;-73
2022/03/28 09:03:47;;;;;;;4.97;2.08;;;6.60;99.90;;;;;;5046767;28;20107;-74
2022/03/28 09:06:36;;;;;;;5.53;2.42;;;6.60;99.90;;;;;;5029537;28;20068;-73
2022/03/28 09:09:12;;;;;;;6.07;2.15;;;6.60;99.90;;;;;;5039962;28;20125;-76
2022/03/28 09:11:38;;;;;;;5.70;2.10;;;6.60;99.90;;;;;;5026556;28;20033;-73
2022/03/28 09:14:03;;;;;;;5.82;2.05;;;6.60;99.90;;;;;;5033469;28;20052;-74
2022/03/28 09:16:33;;;;;;;4.47;1.90;;;6.60;99.90;;;;;;5016329;28;20037;-75
2022/03/28 09:18:59;;;;;;;4.72;1.98;;;6.60;99.90;;;;;;5016394;28;20102;-75
2022/03/28 09:21:25;;;;;;;4.82;1.95;;;6.60;99.90;;;;;;5047615;28;20628;-74
2022/03/28 09:23:52;;;;;;;5.85;2.95;;;6.70;99.90;;;;;;5047885;28;20041;-74
2022/03/28 09:26:22;;;;;;;6.45;1.67;;;6.70;99.90;;;;;;5037043;28;20142;-75
2022/03/28 09:28:56;;;;;;;5.20;2.33;;;6.80;99.90;;;;;;5032475;28;20445;-75
2022/03/28 09:31:44;;;;;;;4.65;2.28;;;6.80;99.90;;;;;;5054455;28;20364;-75
2022/03/28 09:34:12;;;;;;;6.90;3.15;;;6.80;99.90;;;;;;5052870;28;20033;-75
2022/03/28 09:36:55;;;;;;;4.45;2.00;;;6.80;99.90;;;;;;5045175;28;20536;-75
2022/03/28 09:39:22;;;;;;;7.15;2.65;;;6.90;99.90;;;;;;5027355;28;20148;-75
2022/03/28 09:42:03;;;;;;;6.75;2.30;;;6.90;99.90;;;;;;5051581;28;20052;-75
2022/03/28 09:44:50;;;;;;;5.38;2.50;;;7.00;99.90;;;;;;5039210;28;20072;-75
2022/03/28 09:47:21;;;;;;;6.40;3.00;;;7.00;99.90;;;;;;5038845;28;20044;-75
2022/03/28 09:49:49;;;;;;;4.82;2.58;;;7.00;99.90;;;;;;5020728;28;21220;-75
2022/03/28 09:52:30;;;;;;;6.03;2.63;;;7.00;99.90;;;;;;5040045;28;20040;-75
2022/03/28 09:54:57;;;;;;;5.78;2.55;;;7.10;99.90;;;;;;5038130;28;20045;-75
2022/03/28 09:57:28;;;;;;;7.85;3.08;;;7.10;99.90;;;;;;5056560;28;20403;-75
2022/03/28 10:00:09;;;;;;;5.15;2.63;;;7.10;99.90;;;;;;5058343;28;20561;-75
2022/03/28 10:02:36;;;;;;;6.47;2.83;;;7.10;99.90;;;;;;5055572;28;20053;-75
2022/03/28 10:05:02;;;;;;;5.75;2.25;;;7.10;99.90;;;;;;5039396;28;20557;-76
2022/03/28 10:07:30;;;;;;;5.45;2.45;;;7.10;99.90;;;;;;5043981;28;20037;-76
2022/03/28 10:09:56;;;;;;;6.43;2.55;;;7.10;99.90;;;;;;5024942;28;20041;-76
2022/03/28 10:12:22;;;;;;;6.03;2.63;;;7.10;99.90;;;;;;5022940;28;20044;-75
2022/03/28 10:14:51;;;;;;;4.03;1.98;;;7.20;99.90;;;;;;5042894;28;20164;-76
2022/03/28 10:17:19;;;;;;;6.25;2.83;;;7.20;99.90;;;;;;5051192;28;20037;-76
2022/03/28 10:19:45;;;;;;;5.15;1.70;;;7.30;99.90;;;;;;5034536;28;20336;-76
2022/03/28 10:22:16;;;;;;;4.82;1.92;;;7.40;99.90;;;;;;5043970;28;20048;-76
2022/03/28 10:24:44;;;;;;;5.03;2.28;;;7.40;99.90;;;;;;5041279;28;20396;-76
2022/03/28 10:27:11;;;;;;;6.70;2.95;;;7.50;99.90;;;;;;5036852;28;20649;-76
2022/03/28 10:29:39;;;;;;;7.13;2.92;;;7.60;99.90;;;;;;5041088;28;20029;-76
2022/03/28 10:32:09;;;;;;;3.80;1.90;;;7.60;99.90;;;;;;5056992;28;20036;-76
2022/03/28 10:34:52;;;;;;;6.95;2.40;;;7.50;99.90;;;;;;5059662;28;20148;-76
2022/03/28 10:37:36;;;;;;;6.75;2.67;;;7.50;99.90;;;;;;5037928;28;20040;-76
2022/03/28 10:40:23;;;;;;;5.22;2.10;;;7.60;99.90;;;;;;5046330;28;20486;-76
2022/03/28 10:43:14;;;;;;;3.75;1.63;;;7.70;99.90;;;;;;5054516;28;20044;-76
2022/03/28 10:46:01;;;;;;;5.40;2.28;;;7.80;99.90;;;;;;5041137;28;20077;-76
2022/03/28 10:48:48;;;;;;;7.85;2.15;;;7.80;99.90;;;;;;5038463;28;20037;-76
2022/03/28 10:51:29;;;;;;;5.75;2.08;;;7.90;99.90;;;;;;5038448;28;20120;-76
2022/03/28 10:54:15;;;;;;;6.50;2.58;;;7.90;99.90;;;;;;5023236;28;20044;-76
2022/03/28 10:56:45;;;;;;;6.68;2.65;;;8.00;99.90;;;;;;5034134;28;20053;-76
2022/03/28 10:59:19;;;;;;;6.68;2.97;;;8.00;99.90;;;;;;5027695;28;20045;-76
2022/03/28 11:01:49;;;;;;;5.50;2.50;;;8.10;99.90;;;;;;5036649;28;20060;-75
2022/03/28 11:04:22;;;;;;;5.78;2.42;;;8.10;99.90;;;;;;5031686;28;20037;-75
2022/03/28 11:07:05;;;;;;;5.18;2.35;;;8.10;99.90;;;;;;5033774;28;20052;-74
2022/03/28 11:09:45;;;;;;;7.53;2.58;;;8.20;99.90;;;;;;5056930;28;20045;-73
2022/03/28 11:12:19;;;;;;;7.57;2.75;;;8.30;99.90;;;;;;5034955;28;20593;-73
2022/03/28 11:14:44;;;;;;;5.05;2.00;;;8.30;99.90;;;;;;5025751;28;20407;-73
2022/03/28 11:17:35;;;;;;;7.10;2.60;;;8.40;99.90;;;;;;5049230;28;20067;-73
2022/03/28 11:20:14;;;;;;;5.30;2.53;;;8.40;99.90;;;;;;5028327;28;20154;-73
2022/03/28 11:22:44;;;;;;;7.97;2.45;;;8.40;99.90;;;;;;5020265;28;20542;-73
2022/03/28 11:25:47;;;;;;;8.43;3.05;;;8.40;99.90;;;;;;5052611;28;20601;-73
2022/03/28 11:28:19;;;;;;;6.18;2.45;;;8.40;99.90;;;;;;5026903;28;20044;-73
2022/03/28 11:30:44;;;;;;;5.68;2.20;;;8.40;99.90;;;;;;5045731;28;20406;-72
2022/03/28 11:33:11;;;;;;;5.60;3.15;;;8.40;99.90;;;;;;5042773;28;20123;-72
2022/03/28 11:35:38;;;;;;;4.82;2.45;;;8.40;99.90;;;;;;5058243;28;20048;-73
2022/03/28 11:38:05;;;;;;;6.28;2.55;;;8.50;99.90;;;;;;5045779;28;20075;-73
2022/03/28 11:40:41;;;;;;;6.47;3.00;;;8.50;99.90;;;;;;5039286;28;20103;-72
2022/03/28 11:43:07;;;;;;;5.82;2.58;;;8.50;99.90;;;;;;5029782;28;20597;-72
2022/03/28 11:45:33;;;;;;;4.95;2.20;;;8.70;99.90;;;;;;5039669;28;20554;-73
2022/03/28 11:48:01;;;;;;;5.40;2.63;;;8.80;99.90;;;;;;5040046;28;20127;-73
2022/03/28 11:50:31;;;;;;;6.53;2.83;;;8.90;99.90;;;;;;5028669;28;20087;-72
2022/03/28 11:52:58;;;;;;;5.70;2.72;;;9.00;99.90;;;;;;5040654;28;20036;-72
2022/03/28 11:55:26;;;;;;;6.03;2.65;;;9.10;99.90;;;;;;5040248;28;20522;-72
2022/03/28 12:00:38;;;;;;;9.25;3.20;;;9.00;99.90;;;;;;5033594;28;20127;-72
2022/03/28 12:03:04;;;;;;;6.47;2.85;;;8.90;99.90;;;;;;5046211;28;20063;-72
2022/03/28 12:05:35;;;;;;;7.03;3.53;;;8.90;99.90;;;;;;5055475;28;20127;-73
2022/03/28 12:08:08;;;;;;;8.35;3.25;;;8.80;99.90;;;;;;5041528;28;20056;-73
2022/03/28 12:10:36;;;;;;;6.05;3.08;;;8.80;99.90;;;;;;5027145;28;20482;-72
2022/03/28 12:13:05;;;;;;;8.18;3.33;;;8.80;99.90;;;;;;5059185;28;20139;-73
2022/03/28 12:15:36;;;;;;;6.40;3.38;;;8.80;99.90;;;;;;5040412;28;20132;-72
2022/03/28 12:18:09;;;;;;;6.25;3.05;;;8.80;99.90;;;;;;5032913;28;20041;-72
2022/03/28 12:20:37;;;;;;;10.20;3.28;;;8.90;99.90;;;;;;5042830;28;20064;-73
2022/03/28 12:23:05;;;;;;;6.93;3.40;;;8.90;99.90;;;;;;5040080;28;20045;-72
2022/03/28 12:25:38;;;;;;;7.47;2.95;;;8.90;99.90;;;;;;5045248;28;20048;-72
2022/03/28 12:28:11;;;;;;;7.07;3.35;;;8.90;99.90;;;;;;5054944;28;20037;-72
2022/03/28 12:30:50;;;;;;;8.32;3.40;;;8.80;99.90;;;;;;5053900;28;20041;-72
2022/03/28 12:33:22;;;;;;;9.10;3.53;;;8.80;99.90;;;;;;5039645;28;20043;-72
2022/03/28 12:35:56;;;;;;;6.68;3.25;;;8.80;99.90;;;;;;5046028;28;20045;-72
2022/03/28 12:38:25;;;;;;;6.03;3.10;;;8.80;99.90;;;;;;5042782;28;20041;-72
2022/03/28 12:40:56;;;;;;;7.20;3.42;;;8.80;99.90;;;;;;5057987;28;20037;-72
2022/03/28 12:43:27;;;;;;;9.10;3.45;;;8.80;99.90;;;;;;5037501;28;20120;-72
2022/03/28 12:45:54;;;;;;;5.75;2.88;;;8.80;99.90;;;;;;5045628;28;20096;-72
2022/03/28 12:48:21;;;;;;;7.35;3.67;;;8.90;99.90;;;;;;5039721;28;20116;-72
2022/03/28 12:50:56;;;;;;;5.55;2.83;;;8.90;99.90;;;;;;5038664;28;20040;-72
2022/03/28 12:53:25;;;;;;;7.57;3.35;;;9.00;99.90;;;;;;5041184;28;20817;-72
2022/03/28 12:55:50;;;;;;;7.75;3.72;;;9.00;99.90;;;;;;5039203;28;20563;-73
2022/03/28 12:58:16;;;;;;;6.80;3.20;;;9.10;99.90;;;;;;5055373;28;20029;-72
2022/03/28 13:00:43;;;;;;;7.28;3.40;;;9.10;99.90;;;;;;5044026;28;20155;-72
2022/03/28 13:03:09;;;;;;;9.98;3.50;;;9.20;99.90;;;;;;5040872;28;20534;-72
2022/03/28 13:05:36;;;;;;;8.05;3.30;;;9.30;99.90;;;;;;5021194;28;20033;-72